createdAt,value
2023-01-25T00:02:11.466Z,32.80
2023-01-25T00:04:56.818Z,32.42
2023-01-25T00:07:42.226Z,32.42
2023-01-25T00:10:27.689Z,33.20
2023-01-25T00:13:13.185Z,31.65
2023-01-25T00:16:04.008Z,33.95
2023-01-25T00:18:50.517Z,32.75
2023-01-25T00:21:36.692Z,34.92
2023-01-25T00:24:23.319Z,31.05
2023-01-25T00:27:08.744Z,33.83
2023-01-25T00:29:54.092Z,33.30
2023-01-25T00:32:52.837Z,32.05
2023-01-25T00:35:38.942Z,31.33
2023-01-25T00:38:31.321Z,30.85
2023-01-25T00:41:16.481Z,31.77
2023-01-25T00:44:01.979Z,31.33
2023-01-25T00:46:47.796Z,30.98
2023-01-25T00:49:33.599Z,32.70
2023-01-25T00:52:18.984Z,31.75
2023-01-25T00:55:05.633Z,31.98
2023-01-25T00:57:51.208Z,33.20
2023-01-25T01:00:36.655Z,32.35
2023-01-25T01:03:22.647Z,32.97
2023-01-25T01:06:11.086Z,33.92
2023-01-25T01:08:56.279Z,33.17
2023-01-25T01:11:42.186Z,31.30
2023-01-25T01:14:27.456Z,35.42
2023-01-25T01:17:13.189Z,34.58
2023-01-25T01:19:58.916Z,39.45
2023-01-25T01:22:44.183Z,36.97
2023-01-25T01:25:29.732Z,42.65
2023-01-25T01:28:15.100Z,41.08
2023-01-25T01:31:05.601Z,40.42
2023-01-25T01:33:58.209Z,40.58
2023-01-25T01:36:44.097Z,39.78
2023-01-25T01:39:29.239Z,37.17
2023-01-25T01:42:14.762Z,38.95
2023-01-25T01:45:00.265Z,37.63
2023-01-25T01:47:48.775Z,35.20
2023-01-25T01:50:33.981Z,35.10
2023-01-25T01:53:21.118Z,36.67
2023-01-25T01:56:09.810Z,38.17
2023-01-25T01:58:58.094Z,36.35
2023-01-25T02:01:44.458Z,39.03
2023-01-25T02:04:30.790Z,37.75
2023-01-25T02:07:29.627Z,35.08
2023-01-25T02:10:15.645Z,34.83
2023-01-25T02:13:02.729Z,31.85
2023-01-25T02:15:51.766Z,31.20
2023-01-25T02:18:37.394Z,31.02
2023-01-25T02:21:24.848Z,31.95
2023-01-25T02:24:16.842Z,32.75
2023-01-25T02:27:02.267Z,31.60
2023-01-25T02:29:47.780Z,32.90
2023-01-25T02:32:35.300Z,32.80
2023-01-25T02:35:25.262Z,32.33
2023-01-25T02:38:13.787Z,32.47
2023-01-25T02:41:36.194Z,29.73
2023-01-25T02:44:29.157Z,31.45
2023-01-25T02:47:15.156Z,32.55
2023-01-25T02:50:00.628Z,34.88
2023-01-25T02:52:46.191Z,33.92
2023-01-25T02:55:31.552Z,32.22
2023-01-25T02:58:18.143Z,34.83
2023-01-25T03:01:04.088Z,32.92
2023-01-25T03:03:50.055Z,32.85
2023-01-25T03:06:38.024Z,35.80
2023-01-25T03:09:23.469Z,36.25
2023-01-25T03:12:09.912Z,34.63
2023-01-25T03:14:57.589Z,33.72
2023-01-25T03:17:43.592Z,35.58
2023-01-25T03:20:28.760Z,32.85
2023-01-25T03:23:14.297Z,35.92
2023-01-25T03:26:21.189Z,35.63
2023-01-25T03:29:36.064Z,34.80
2023-01-25T03:32:25.282Z,35.38
2023-01-25T03:35:11.176Z,33.25
2023-01-25T03:37:56.978Z,33.60
2023-01-25T03:40:42.428Z,34.88
2023-01-25T03:43:28.615Z,37.80
2023-01-25T03:46:14.650Z,36.63
2023-01-25T03:49:00.218Z,33.65
2023-01-25T03:51:45.653Z,34.38
2023-01-25T03:54:31.789Z,37.50
2023-01-25T03:57:17.543Z,37.40
2023-01-25T04:00:12.722Z,36.58
2023-01-25T04:03:03.764Z,33.92
2023-01-25T04:05:49.267Z,35.72
2023-01-25T04:08:36.470Z,34.05
2023-01-25T04:11:23.551Z,31.45
2023-01-25T04:14:10.076Z,33.05
2023-01-25T04:17:05.317Z,32.45
2023-01-25T04:20:12.454Z,32.00
2023-01-25T04:22:59.718Z,34.42
2023-01-25T04:26:06.310Z,31.77
2023-01-25T04:28:52.228Z,34.38
2023-01-25T04:31:37.743Z,33.33
2023-01-25T04:34:24.839Z,34.45
2023-01-25T04:37:11.049Z,35.67
2023-01-25T04:40:06.969Z,43.38
2023-01-25T04:42:58.727Z,37.25
2023-01-25T04:45:45.388Z,38.83
2023-01-25T04:48:39.027Z,37.20
2023-01-25T04:51:25.904Z,35.67
2023-01-25T04:54:11.568Z,34.03
2023-01-25T04:56:57.131Z,32.40
2023-01-25T04:59:42.662Z,34.70
2023-01-25T05:02:28.292Z,34.42
2023-01-25T05:05:14.648Z,33.75
2023-01-25T05:08:00.144Z,34.55
2023-01-25T05:10:47.267Z,32.05
2023-01-25T05:13:46.369Z,31.10
2023-01-25T05:16:40.006Z,32.08
2023-01-25T05:19:26.663Z,31.35
2023-01-25T05:22:20.840Z,33.05
2023-01-25T05:25:29.663Z,34.43
2023-01-25T05:28:16.108Z,34.65
2023-01-25T05:31:19.774Z,34.72
2023-01-25T05:34:06.089Z,34.13
2023-01-25T05:36:51.807Z,30.90
2023-01-25T05:39:37.986Z,30.38
2023-01-25T05:42:23.358Z,32.47
2023-01-25T05:45:10.065Z,32.55
2023-01-25T05:47:58.525Z,35.35
2023-01-25T05:50:43.948Z,33.53
2023-01-25T05:53:35.609Z,31.42
2023-01-25T05:56:22.013Z,35.17
2023-01-25T05:59:07.353Z,35.35
2023-01-25T06:01:53.405Z,35.28
2023-01-25T06:04:38.904Z,34.20
2023-01-25T06:07:25.154Z,35.40
2023-01-25T06:10:10.755Z,32.90
2023-01-25T06:12:59.388Z,34.10
2023-01-25T06:15:55.562Z,33.65
2023-01-25T06:19:16.447Z,34.50
2023-01-25T06:22:14.427Z,35.65
2023-01-25T06:25:00.060Z,36.10
2023-01-25T06:27:45.725Z,38.55
2023-01-25T06:30:30.985Z,36.03
2023-01-25T06:33:16.329Z,36.53
2023-01-25T06:36:16.298Z,37.00
2023-01-25T06:39:01.919Z,38.63
2023-01-25T06:41:47.502Z,39.65
2023-01-25T06:44:33.079Z,37.47
2023-01-25T06:47:18.480Z,36.60
2023-01-25T06:50:04.340Z,34.83
2023-01-25T06:52:54.033Z,36.42
2023-01-25T06:55:39.077Z,37.90
2023-01-25T06:58:24.641Z,38.53
2023-01-25T07:01:15.281Z,40.75
2023-01-25T07:04:00.862Z,41.88
2023-01-25T07:06:46.128Z,40.08
2023-01-25T07:09:31.714Z,40.03
2023-01-25T07:12:17.459Z,38.78
2023-01-25T07:15:02.646Z,43.95
2023-01-25T07:17:48.072Z,41.67
2023-01-25T07:20:33.509Z,42.45
2023-01-25T07:23:19.833Z,41.03
2023-01-25T07:26:06.284Z,48.80
2023-01-25T07:28:53.475Z,42.50
2023-01-25T07:31:39.024Z,45.17
2023-01-25T07:34:24.488Z,44.28
2023-01-25T07:37:10.323Z,43.03
2023-01-25T07:39:58.151Z,43.63
2023-01-25T07:42:43.433Z,44.92
2023-01-25T07:45:31.413Z,44.78
2023-01-25T07:48:18.423Z,43.05
2023-01-25T07:51:11.626Z,45.67
2023-01-25T07:54:03.207Z,43.72
2023-01-25T07:56:49.488Z,43.90
2023-01-25T07:59:34.648Z,41.45
2023-01-25T08:02:19.884Z,48.15
2023-01-25T08:05:06.285Z,46.05
2023-01-25T08:07:51.884Z,46.22
2023-01-25T08:10:38.134Z,46.72
2023-01-25T08:13:23.621Z,44.67
2023-01-25T08:16:09.229Z,42.33
2023-01-25T08:18:57.566Z,47.45
2023-01-25T08:21:43.147Z,47.35
2023-01-25T08:24:28.580Z,42.95
2023-01-25T08:27:13.912Z,48.45
2023-01-25T08:29:59.309Z,45.72
2023-01-25T08:32:44.918Z,45.40
2023-01-25T08:35:30.147Z,42.47
2023-01-25T08:38:15.313Z,45.20
2023-01-25T08:41:09.089Z,44.72
2023-01-25T08:43:55.523Z,39.90
2023-01-25T08:46:40.858Z,39.30
2023-01-25T08:49:27.575Z,44.28
2023-01-25T08:52:14.848Z,38.97
2023-01-25T08:55:00.832Z,37.80
2023-01-25T08:57:45.828Z,40.40
2023-01-25T09:00:31.453Z,40.72
2023-01-25T09:03:18.134Z,39.60
2023-01-25T09:06:04.149Z,39.67
2023-01-25T09:08:50.162Z,37.70
2023-01-25T09:11:37.954Z,37.08
2023-01-25T09:14:23.588Z,38.63
2023-01-25T09:17:10.072Z,38.65
2023-01-25T09:19:55.105Z,38.33
2023-01-25T09:22:40.614Z,42.78
2023-01-25T09:25:26.218Z,38.25
2023-01-25T09:28:11.883Z,39.63
2023-01-25T09:31:20.379Z,35.92
2023-01-25T09:34:23.536Z,39.67
2023-01-25T09:37:09.953Z,38.63
2023-01-25T09:39:55.349Z,35.60
2023-01-25T09:43:00.528Z,40.95
2023-01-25T09:45:47.316Z,40.45
2023-01-25T09:48:39.741Z,38.92
2023-01-25T09:52:00.621Z,43.60
2023-01-25T09:54:47.862Z,38.33
2023-01-25T09:57:38.021Z,38.05
2023-01-25T10:00:30.925Z,40.90
2023-01-25T10:03:32.377Z,38.75
2023-01-25T10:06:23.302Z,40.80
2023-01-25T10:09:31.862Z,38.05
2023-01-25T10:12:23.894Z,38.22
2023-01-25T10:15:19.817Z,38.40
2023-01-25T10:18:23.115Z,41.72
2023-01-25T10:21:18.393Z,44.05
2023-01-25T10:24:17.133Z,43.67
2023-01-25T10:27:28.483Z,43.90
2023-01-25T10:30:28.048Z,40.53
2023-01-25T10:33:19.681Z,45.53
2023-01-25T10:36:05.901Z,43.72
2023-01-25T10:38:59.193Z,41.65
2023-01-25T10:41:52.977Z,51.85
2023-01-25T10:44:38.280Z,45.17
2023-01-25T10:47:30.997Z,44.42
2023-01-25T10:53:30.986Z,47.95
2023-01-25T10:56:27.157Z,46.95
2023-01-25T10:59:23.918Z,46.58
2023-01-25T11:02:41.599Z,49.50
2023-01-25T11:05:31.792Z,50.95
2023-01-25T11:08:35.190Z,49.97
2023-01-25T11:11:31.431Z,49.40
2023-01-25T11:14:18.264Z,49.70
2023-01-25T11:17:05.571Z,51.40
2023-01-25T11:20:22.389Z,50.88
2023-01-25T11:23:29.050Z,49.35
2023-01-25T11:26:19.375Z,52.30
2023-01-25T11:29:20.774Z,50.42
2023-01-25T11:32:21.516Z,50.33
2023-01-25T11:35:15.297Z,48.78
2023-01-25T11:38:10.788Z,47.95
2023-01-25T11:41:06.118Z,46.80
2023-01-25T11:44:00.713Z,49.33
2023-01-25T11:47:13.627Z,51.17
2023-01-25T11:50:04.609Z,49.22
2023-01-25T11:53:20.826Z,50.22
2023-01-25T11:56:25.405Z,46.35
2023-01-25T11:59:23.414Z,50.65
2023-01-25T12:02:33.328Z,48.92
2023-01-25T12:05:37.010Z,46.05
2023-01-25T12:08:46.958Z,51.25
2023-01-25T12:11:46.504Z,49.90
2023-01-25T12:15:10.856Z,51.40
2023-01-25T12:18:14.644Z,53.72
2023-01-25T12:21:31.300Z,56.85
2023-01-25T12:24:47.910Z,56.05
2023-01-25T12:27:53.279Z,51.95
2023-01-25T12:30:43.063Z,52.97
2023-01-25T12:33:47.632Z,56.85
2023-01-25T12:36:41.872Z,56.50
2023-01-25T12:39:40.131Z,54.72
2023-01-25T12:42:37.602Z,58.20
2023-01-25T12:45:33.070Z,55.03
2023-01-25T12:48:23.611Z,55.40
2023-01-25T12:51:09.725Z,57.63
2023-01-25T12:53:56.094Z,57.20
2023-01-25T12:57:05.567Z,57.65
2023-01-25T13:00:10.004Z,62.53
2023-01-25T13:03:01.585Z,59.75
2023-01-25T13:06:01.967Z,58.83
2023-01-25T13:08:54.344Z,58.80
2023-01-25T13:11:42.503Z,60.13
2023-01-25T13:14:36.909Z,56.40
2023-01-25T13:17:38.286Z,55.20
2023-01-25T13:20:39.011Z,58.33
2023-01-25T13:23:51.992Z,58.65
2023-01-25T13:26:39.467Z,59.58
2023-01-25T13:29:38.222Z,58.00
2023-01-25T13:32:29.274Z,60.60
2023-01-25T13:35:38.841Z,59.42
2023-01-25T13:38:32.964Z,60.83
2023-01-25T13:41:18.432Z,61.03
2023-01-25T13:44:28.129Z,60.17
2023-01-25T13:47:16.883Z,54.25
2023-01-25T13:50:14.554Z,55.10
2023-01-25T13:53:19.123Z,53.65
2023-01-25T13:56:04.562Z,52.83
2023-01-25T13:58:50.004Z,56.38
2023-01-25T14:01:36.696Z,54.42
2023-01-25T14:04:22.248Z,52.72
2023-01-25T14:07:14.295Z,52.75
2023-01-25T14:10:10.211Z,50.30
2023-01-25T14:13:00.526Z,52.05
2023-01-25T14:16:00.144Z,49.58
2023-01-25T14:18:46.552Z,50.15
2023-01-25T14:21:32.191Z,53.83
2023-01-25T14:24:19.179Z,58.72
2023-01-25T14:27:05.699Z,57.72
2023-01-25T14:29:50.927Z,60.63
2023-01-25T14:32:36.908Z,54.35
2023-01-25T14:35:43.576Z,55.80
2023-01-25T14:38:39.256Z,55.08
2023-01-25T14:41:59.319Z,53.35
2023-01-25T14:44:46.208Z,56.58
2023-01-25T14:47:35.584Z,52.15
2023-01-25T14:50:41.115Z,50.70
2023-01-25T14:53:26.746Z,51.22
2023-01-25T14:56:43.030Z,52.80
2023-01-25T14:59:41.654Z,51.65
2023-01-25T15:02:49.589Z,50.47
2023-01-25T15:05:37.236Z,54.78
2023-01-25T15:08:39.938Z,53.88
2023-01-25T15:11:49.035Z,56.53
2023-01-25T15:14:48.264Z,54.20
2023-01-25T15:17:48.261Z,53.72
2023-01-25T15:20:41.652Z,55.38
2023-01-25T15:23:29.602Z,57.17
2023-01-25T15:26:28.645Z,55.03
2023-01-25T15:29:16.251Z,53.75
2023-01-25T15:32:01.441Z,56.53
2023-01-25T15:34:47.716Z,58.47
2023-01-25T15:37:32.998Z,57.47
2023-01-25T15:40:18.261Z,59.08
2023-01-25T15:43:03.890Z,59.28
2023-01-25T15:45:50.861Z,56.22
2023-01-25T15:48:40.511Z,55.85
2023-01-25T15:51:26.268Z,56.58
2023-01-25T15:54:11.465Z,53.05
2023-01-25T15:56:58.684Z,54.25
2023-01-25T15:59:44.240Z,53.63
2023-01-25T16:02:29.314Z,55.45
2023-01-25T16:05:14.797Z,56.08
2023-01-25T16:08:00.303Z,52.83
2023-01-25T16:10:45.821Z,52.70
2023-01-25T16:13:31.184Z,54.08
2023-01-25T16:16:20.606Z,61.53
2023-01-25T16:19:06.076Z,62.05
2023-01-25T16:21:51.954Z,62.33
2023-01-25T16:24:39.467Z,63.78
2023-01-25T16:27:25.619Z,59.67
2023-01-25T16:30:22.944Z,58.65
2023-01-25T16:33:09.436Z,59.25
2023-01-25T16:36:19.138Z,56.08
2023-01-25T16:39:22.079Z,57.53
2023-01-25T16:42:09.668Z,65.13
2023-01-25T16:44:55.156Z,70.10
2023-01-25T16:47:40.504Z,67.57
2023-01-25T16:50:26.160Z,66.30
2023-01-25T16:53:11.597Z,70.63
2023-01-25T16:55:59.506Z,61.80
2023-01-25T16:58:46.014Z,72.82
2023-01-25T17:01:32.031Z,66.53
2023-01-25T17:04:18.274Z,65.18
2023-01-25T17:07:03.423Z,66.88
2023-01-25T17:09:48.751Z,66.38
2023-01-25T17:12:34.346Z,70.30
2023-01-25T17:15:20.410Z,76.65
2023-01-25T17:18:05.821Z,70.47
2023-01-25T17:21:06.514Z,69.05
2023-01-25T17:23:52.637Z,68.97
2023-01-25T17:26:37.843Z,62.92
2023-01-25T17:29:23.278Z,66.88
2023-01-25T17:32:09.338Z,70.30
2023-01-25T17:34:54.839Z,67.18
2023-01-25T17:37:41.061Z,67.25
2023-01-25T17:40:26.503Z,61.40
2023-01-25T17:43:11.796Z,66.40
2023-01-25T17:45:57.583Z,58.00
2023-01-25T17:48:42.640Z,68.32
2023-01-25T17:51:28.637Z,65.35
2023-01-25T17:54:14.290Z,69.32
2023-01-25T17:56:59.761Z,66.47
2023-01-25T17:59:45.605Z,68.05
2023-01-25T18:02:30.994Z,69.07
2023-01-25T18:05:16.604Z,63.40
2023-01-25T18:08:01.895Z,66.07
2023-01-25T18:10:47.250Z,62.85
2023-01-25T18:13:32.773Z,62.38
2023-01-25T18:16:19.791Z,64.80
2023-01-25T18:19:06.110Z,67.50
2023-01-25T18:21:51.513Z,67.80
2023-01-25T18:24:37.118Z,68.43
2023-01-25T18:27:24.442Z,64.32
2023-01-25T18:30:43.594Z,70.32
2023-01-25T18:33:29.092Z,69.10
2023-01-25T18:36:16.601Z,69.95
2023-01-25T18:39:02.146Z,76.30
2023-01-25T18:41:49.828Z,76.38
2023-01-25T18:44:36.026Z,73.75
2023-01-25T18:47:22.738Z,72.05
2023-01-25T18:50:09.439Z,71.82
2023-01-25T18:52:55.721Z,74.13
2023-01-25T18:55:41.009Z,78.38
2023-01-25T18:58:26.360Z,76.72
2023-01-25T19:01:17.573Z,80.65
2023-01-25T19:04:02.984Z,78.68
2023-01-25T19:06:48.423Z,73.32
2023-01-25T19:09:34.033Z,72.05
2023-01-25T19:12:19.423Z,70.03
2023-01-25T19:15:05.363Z,73.10
2023-01-25T19:17:50.778Z,76.40
2023-01-25T19:20:36.067Z,89.53
2023-01-25T19:23:21.606Z,84.25
2023-01-25T19:26:09.726Z,84.72
2023-01-25T19:28:56.159Z,83.97
2023-01-25T19:31:41.878Z,86.18
2023-01-25T19:34:27.237Z,86.55
2023-01-25T19:37:12.371Z,86.90
2023-01-25T19:39:57.695Z,85.40
2023-01-25T19:42:42.993Z,91.85
2023-01-25T19:45:28.456Z,92.55
2023-01-25T19:48:13.864Z,96.68
2023-01-25T19:51:07.985Z,85.93
2023-01-25T19:53:58.498Z,94.70
2023-01-25T19:56:46.374Z,91.18
2023-01-25T19:59:32.509Z,99.93
2023-01-25T20:02:17.958Z,99.13
2023-01-25T20:05:03.272Z,99.53
2023-01-25T20:07:48.491Z,97.13
2023-01-25T20:10:34.676Z,88.53
2023-01-25T20:13:19.875Z,92.88
2023-01-25T20:16:05.788Z,94.35
2023-01-25T20:18:51.297Z,91.15
2023-01-25T20:21:38.164Z,90.40
2023-01-25T20:24:23.619Z,93.57
2023-01-25T20:27:08.998Z,94.88
2023-01-25T20:29:54.427Z,96.20
2023-01-25T20:32:39.834Z,91.38
2023-01-25T20:35:25.286Z,94.72
2023-01-25T20:38:10.816Z,95.82
2023-01-25T20:41:04.444Z,91.05
2023-01-25T20:43:52.312Z,94.55
2023-01-25T20:46:39.830Z,92.55
2023-01-25T20:49:24.972Z,97.50
2023-01-25T20:52:13.580Z,97.18
2023-01-25T20:54:59.035Z,94.43
2023-01-25T20:57:44.846Z,91.05
2023-01-25T21:00:30.219Z,93.93
2023-01-25T21:03:15.596Z,93.63
2023-01-25T21:06:01.114Z,88.15
2023-01-25T21:08:46.275Z,90.05
2023-01-25T21:11:32.509Z,90.57
2023-01-25T21:14:19.353Z,87.85
2023-01-25T21:17:05.035Z,89.45
2023-01-25T21:19:50.344Z,88.63
2023-01-25T21:22:36.073Z,86.60
2023-01-25T21:25:21.062Z,85.68
2023-01-25T21:28:06.369Z,81.32
2023-01-25T21:30:52.124Z,75.90
2023-01-25T21:33:38.074Z,79.28
2023-01-25T21:36:23.363Z,76.93
2023-01-25T21:39:08.751Z,74.85
2023-01-25T21:41:54.290Z,74.55
2023-01-25T21:44:58.339Z,73.97
2023-01-25T21:47:43.573Z,73.38
2023-01-25T21:50:47.613Z,72.80
2023-01-25T21:53:32.975Z,71.45
2023-01-25T21:56:18.250Z,66.22
2023-01-25T21:59:03.692Z,67.78
2023-01-25T22:01:49.511Z,64.68
2023-01-25T22:04:36.019Z,66.10
2023-01-25T22:07:21.509Z,65.45
2023-01-25T22:10:07.138Z,65.78
2023-01-25T22:12:52.686Z,55.60
2023-01-25T22:15:37.746Z,58.58
2023-01-25T22:18:23.282Z,64.80
2023-01-25T22:21:20.372Z,66.82
2023-01-25T22:24:06.293Z,64.18
2023-01-25T22:27:03.602Z,65.38
2023-01-25T22:29:49.058Z,63.40
2023-01-25T22:32:34.501Z,60.03
2023-01-25T22:35:20.027Z,64.32
2023-01-25T22:38:05.264Z,66.68
2023-01-25T22:40:50.618Z,60.90
2023-01-25T22:43:37.397Z,61.47
2023-01-25T22:46:25.843Z,58.25
2023-01-25T22:49:11.405Z,56.33
2023-01-25T22:51:56.840Z,56.20
2023-01-25T22:54:42.240Z,54.70
2023-01-25T22:57:27.791Z,58.22
2023-01-25T23:00:13.959Z,51.60
2023-01-25T23:02:59.155Z,55.45
2023-01-25T23:05:44.636Z,52.58
2023-01-25T23:08:33.616Z,51.78
2023-01-25T23:11:21.320Z,51.65
2023-01-25T23:14:29.653Z,53.80
2023-01-25T23:17:33.556Z,52.30
2023-01-25T23:20:19.168Z,49.03
2023-01-25T23:23:04.656Z,49.80
2023-01-25T23:25:51.483Z,45.92
2023-01-25T23:28:37.058Z,49.10
2023-01-25T23:31:24.429Z,45.88
2023-01-25T23:34:11.556Z,51.50
2023-01-25T23:36:57.173Z,46.40
2023-01-25T23:39:42.492Z,45.47
2023-01-25T23:42:28.063Z,43.60
2023-01-25T23:45:13.620Z,40.10
2023-01-25T23:47:59.057Z,41.08
2023-01-25T23:50:44.542Z,40.45
2023-01-25T23:53:33.507Z,37.67
2023-01-25T23:56:21.288Z,35.95
2023-01-25T23:59:07.784Z,36.83
